createdAt,value
2023-01-15T00:03:01.022Z,62.20
2023-01-15T00:08:02.613Z,61.36
2023-01-15T00:13:04.046Z,61.47
2023-01-15T00:18:05.535Z,61.76
2023-01-15T00:23:26.919Z,62.12
2023-01-15T00:28:28.409Z,62.80
2023-01-15T00:33:29.980Z,62.71
2023-01-15T00:38:31.394Z,62.52
2023-01-15T00:43:32.804Z,64.02
2023-01-15T00:48:35.307Z,64.85
2023-01-15T00:53:36.774Z,65.66
2023-01-15T00:58:38.218Z,67.28
2023-01-15T01:03:39.869Z,67.61
2023-01-15T01:08:41.474Z,69.14
2023-01-15T01:13:43.598Z,68.80
2023-01-15T01:18:45.005Z,69.24
2023-01-15T01:23:46.495Z,70.37
2023-01-15T01:28:52.116Z,70.52
2023-01-15T01:33:56.005Z,70.72
2023-01-15T01:38:57.597Z,71.09
2023-01-15T01:44:04.045Z,70.90
2023-01-15T01:49:12.867Z,72.03
2023-01-15T01:54:19.247Z,72.11
2023-01-15T01:59:22.434Z,72.00
2023-01-15T02:04:27.688Z,73.04
2023-01-15T02:09:29.104Z,72.45
2023-01-15T02:14:39.075Z,73.99
2023-01-15T02:20:03.218Z,74.06
2023-01-15T02:25:13.461Z,73.97
2023-01-15T02:30:29.147Z,74.40
2023-01-15T02:35:44.547Z,75.75
2023-01-15T02:40:48.260Z,75.51
2023-01-15T02:45:52.754Z,76.38
2023-01-15T02:51:01.624Z,76.58
2023-01-15T02:56:07.740Z,76.63
2023-01-15T03:01:18.174Z,77.12
2023-01-15T03:06:27.834Z,76.99
2023-01-15T03:11:30.980Z,78.75
2023-01-15T03:16:44.938Z,79.33
2023-01-15T03:21:56.065Z,77.94
2023-01-15T03:26:57.748Z,77.40
2023-01-15T03:32:00.689Z,78.21
2023-01-15T03:37:02.775Z,79.69
2023-01-15T03:42:22.819Z,80.22
2023-01-15T03:47:29.953Z,80.14
2023-01-15T03:52:41.649Z,81.07
2023-01-15T03:57:54.894Z,82.41
2023-01-15T04:02:58.415Z,81.26
2023-01-15T04:08:01.204Z,82.11
2023-01-15T04:13:02.655Z,82.33
2023-01-15T04:18:04.176Z,84.82
2023-01-15T04:23:05.601Z,83.73
2023-01-15T04:28:08.459Z,86.65
2023-01-15T04:33:11.664Z,88.67
2023-01-15T04:38:13.125Z,86.41
2023-01-15T04:43:33.066Z,90.66
2023-01-15T04:48:34.496Z,91.16
2023-01-15T04:53:36.963Z,93.27
2023-01-15T04:58:38.549Z,92.10
2023-01-15T05:03:40.113Z,93.49
2023-01-15T05:08:42.139Z,93.74
2023-01-15T05:13:43.633Z,93.84
2023-01-15T05:18:46.874Z,93.84
2023-01-15T05:23:49.877Z,92.47
2023-01-15T05:28:54.676Z,92.56
2023-01-15T05:33:57.282Z,91.77
2023-01-15T05:39:02.287Z,91.23
2023-01-15T05:44:12.187Z,93.12
2023-01-15T05:49:16.845Z,93.78
2023-01-15T05:54:22.244Z,94.61
2023-01-15T05:59:26.006Z,94.94
2023-01-15T06:04:27.655Z,94.74
2023-01-15T06:09:29.704Z,95.67
2023-01-15T06:14:31.288Z,96.61
2023-01-15T06:19:33.351Z,96.61
2023-01-15T06:24:34.785Z,97.31
2023-01-15T06:29:36.191Z,96.62
2023-01-15T06:34:37.648Z,97.60
2023-01-15T06:39:39.130Z,98.63
2023-01-15T06:45:00.820Z,98.29
2023-01-15T06:50:02.581Z,96.94
2023-01-15T06:55:04.306Z,99.22
2023-01-15T07:00:10.340Z,96.51
2023-01-15T07:05:11.864Z,98.05
2023-01-15T07:10:13.308Z,97.98
2023-01-15T07:15:14.881Z,98.50
2023-01-15T07:20:18.780Z,98.49
2023-01-15T07:25:20.210Z,95.26
2023-01-15T07:30:21.637Z,92.35
2023-01-15T07:35:23.042Z,91.32
2023-01-15T07:40:24.498Z,88.28
2023-01-15T07:45:44.734Z,87.73
2023-01-15T07:50:46.465Z,86.94
2023-01-15T07:55:47.928Z,86.32
2023-01-15T08:00:49.376Z,85.46
2023-01-15T08:05:50.876Z,85.23
2023-01-15T08:11:10.800Z,84.79
2023-01-15T08:16:12.338Z,83.65
2023-01-15T08:21:15.565Z,82.51
2023-01-15T08:26:16.995Z,81.67
2023-01-15T08:31:18.499Z,80.67
2023-01-15T08:36:19.995Z,81.21
2023-01-15T08:41:21.426Z,80.30
2023-01-15T08:46:22.994Z,80.99
2023-01-15T08:51:24.415Z,80.54
2023-01-15T08:56:25.977Z,80.91
2023-01-15T09:01:27.555Z,81.22
2023-01-15T09:06:29.042Z,80.71
2023-01-15T09:11:30.579Z,80.22
2023-01-15T09:16:32.784Z,80.15
2023-01-15T09:21:34.724Z,79.68
2023-01-15T09:26:38.426Z,79.66
2023-01-15T09:31:39.881Z,79.82
2023-01-15T09:36:41.568Z,80.07
2023-01-15T09:42:05.393Z,79.25
2023-01-15T09:47:20.978Z,77.96
2023-01-15T09:52:50.244Z,78.31
2023-01-15T09:57:54.095Z,78.27
2023-01-15T10:03:04.226Z,76.70
2023-01-15T10:08:21.306Z,77.43
2023-01-15T10:13:41.615Z,77.93
2023-01-15T10:18:43.563Z,78.16
2023-01-15T10:24:10.716Z,77.94
2023-01-15T10:29:30.475Z,78.35
2023-01-15T10:34:57.182Z,78.45
2023-01-15T10:40:23.151Z,78.26
2023-01-15T10:45:27.687Z,77.89
2023-01-15T10:50:29.135Z,77.77
2023-01-15T10:55:38.635Z,77.39
2023-01-15T11:00:40.785Z,77.58
2023-01-15T11:05:45.674Z,77.51
2023-01-15T11:10:47.107Z,77.47
2023-01-15T11:16:08.944Z,77.61
2023-01-15T11:21:17.157Z,74.88
2023-01-15T11:26:22.798Z,74.89
2023-01-15T11:31:35.887Z,74.46
2023-01-15T11:36:37.352Z,74.42
2023-01-15T11:41:57.224Z,74.18
2023-01-15T11:47:17.330Z,75.15
2023-01-15T11:52:26.179Z,74.75
2023-01-15T11:57:32.745Z,75.22
2023-01-15T12:02:50.531Z,74.92
2023-01-15T12:07:55.508Z,74.89
2023-01-15T12:13:20.229Z,75.39
2023-01-15T12:18:44.469Z,75.60
2023-01-15T12:24:13.517Z,76.02
2023-01-15T12:29:17.734Z,75.94
2023-01-15T12:34:41.219Z,76.32
2023-01-15T12:39:51.939Z,76.04
2023-01-15T12:45:04.145Z,76.00
2023-01-15T12:50:36.824Z,76.27
2023-01-15T12:55:45.032Z,76.55
2023-01-15T13:00:49.259Z,77.86
2023-01-15T13:05:56.405Z,79.00
2023-01-15T13:10:58.050Z,78.64
2023-01-15T13:16:14.543Z,82.13
2023-01-15T13:21:18.312Z,85.90
2023-01-15T13:26:53.430Z,86.92
2023-01-15T13:32:03.563Z,86.74
2023-01-15T13:37:22.170Z,89.00
2023-01-15T13:42:32.426Z,86.67
2023-01-15T13:47:38.156Z,86.17
2023-01-15T13:52:39.690Z,86.77
2023-01-15T13:57:42.962Z,86.33
2023-01-15T14:02:52.522Z,86.53
2023-01-15T14:07:54.151Z,86.29
2023-01-15T14:13:07.958Z,85.42
2023-01-15T14:18:20.589Z,86.32
2023-01-15T14:23:57.603Z,86.47
2023-01-15T14:29:02.807Z,86.12
2023-01-15T14:34:25.554Z,86.47
2023-01-15T14:39:45.680Z,85.62
2023-01-15T14:44:47.635Z,86.40
2023-01-15T14:50:37.848Z,86.69
2023-01-15T14:55:49.620Z,87.06
2023-01-15T15:00:55.783Z,87.78
2023-01-15T15:05:57.588Z,88.23
2023-01-15T15:11:00.845Z,88.35
2023-01-15T15:16:18.984Z,88.34
2023-01-15T15:21:30.256Z,88.44
2023-01-15T15:26:34.551Z,88.61
2023-01-15T15:31:45.313Z,88.84
2023-01-15T15:36:47.004Z,88.81
2023-01-15T15:42:09.764Z,89.41
2023-01-15T15:47:38.795Z,90.00
2023-01-15T15:52:44.540Z,90.21
2023-01-15T15:57:51.021Z,90.34
2023-01-15T16:02:52.624Z,92.72
2023-01-15T16:07:55.511Z,90.91
2023-01-15T16:13:01.771Z,90.76
2023-01-15T16:18:05.244Z,90.61
2023-01-15T16:23:21.499Z,90.64
2023-01-15T16:28:25.994Z,91.05
2023-01-15T16:33:28.076Z,90.91
2023-01-15T16:38:29.560Z,91.02
2023-01-15T16:43:31.426Z,91.48
2023-01-15T16:48:41.609Z,91.16
2023-01-15T16:53:43.020Z,90.97
2023-01-15T16:58:44.642Z,91.14
2023-01-15T17:03:46.195Z,91.20
2023-01-15T17:08:49.239Z,92.15
2023-01-15T17:13:51.478Z,92.05
2023-01-15T17:18:53.045Z,92.35
2023-01-15T17:23:55.866Z,92.59
2023-01-15T17:28:57.318Z,92.97
2023-01-15T17:34:00.689Z,92.64
2023-01-15T17:39:02.509Z,92.56
2023-01-15T17:44:04.101Z,91.86
2023-01-15T17:49:05.533Z,91.91
2023-01-15T17:54:06.973Z,91.59
2023-01-15T17:59:30.469Z,91.55
2023-01-15T18:05:00.177Z,91.83
2023-01-15T18:10:01.885Z,91.20
2023-01-15T18:15:03.526Z,91.44
2023-01-15T18:20:05.685Z,91.20
2023-01-15T18:25:10.573Z,91.30
2023-01-15T18:30:13.968Z,91.12
2023-01-15T18:35:15.943Z,91.02
2023-01-15T18:40:17.503Z,90.79
2023-01-15T18:45:37.297Z,90.81
2023-01-15T18:50:38.740Z,90.58
2023-01-15T18:55:40.181Z,90.01
2023-01-15T19:00:41.671Z,89.55
2023-01-15T19:05:43.106Z,88.99
2023-01-15T19:10:44.519Z,88.67
2023-01-15T19:16:04.786Z,88.22
2023-01-15T19:21:07.894Z,87.83
2023-01-15T19:26:09.513Z,87.29
2023-01-15T19:31:29.647Z,86.81
2023-01-15T19:36:31.091Z,86.60
2023-01-15T19:41:51.393Z,85.11
2023-01-15T19:47:11.500Z,84.52
2023-01-15T19:52:31.396Z,83.91
2023-01-15T19:57:32.838Z,83.51
2023-01-15T20:02:34.816Z,83.22
2023-01-15T20:07:36.419Z,82.94
2023-01-15T20:12:56.226Z,82.86
2023-01-15T20:17:58.172Z,82.65
2023-01-15T20:22:59.754Z,82.40
2023-01-15T20:28:01.299Z,82.24
2023-01-15T20:33:02.886Z,82.20
2023-01-15T20:38:04.371Z,82.18
2023-01-15T20:43:24.260Z,82.04
2023-01-15T20:48:44.264Z,81.85
2023-01-15T20:53:45.973Z,81.88
2023-01-15T20:58:47.524Z,81.76
2023-01-15T21:03:48.952Z,81.29
2023-01-15T21:08:50.494Z,81.25
2023-01-15T21:13:52.032Z,81.17
2023-01-15T21:18:53.487Z,80.41
2023-01-15T21:23:55.071Z,80.26
2023-01-15T21:28:56.567Z,80.10
2023-01-15T21:33:58.781Z,80.29
2023-01-15T21:39:01.917Z,80.80
2023-01-15T21:44:21.976Z,80.36
2023-01-15T21:49:23.549Z,79.66
2023-01-15T21:54:25.018Z,79.98
2023-01-15T21:59:26.561Z,80.27
2023-01-15T22:04:30.042Z,80.15
2023-01-15T22:09:31.472Z,79.92
2023-01-15T22:14:33.490Z,79.18
2023-01-15T22:19:34.973Z,78.68
2023-01-15T22:24:39.639Z,76.99
2023-01-15T22:29:42.480Z,76.57
2023-01-15T22:34:44.072Z,76.21
2023-01-15T22:39:46.524Z,77.36
2023-01-15T22:44:48.920Z,76.54
2023-01-15T22:49:50.759Z,76.46
2023-01-15T22:54:52.723Z,76.43
2023-01-15T22:59:54.164Z,75.99
2023-01-15T23:04:55.577Z,75.27
2023-01-15T23:09:56.994Z,74.92
2023-01-15T23:14:58.671Z,75.38
2023-01-15T23:20:00.190Z,75.16
2023-01-15T23:25:01.645Z,75.24
2023-01-15T23:30:04.025Z,74.74
2023-01-15T23:35:07.509Z,74.67
2023-01-15T23:40:09.718Z,74.90
2023-01-15T23:45:30.334Z,76.18
2023-01-15T23:50:31.759Z,75.82
2023-01-15T23:55:33.172Z,75.88
